Los Angeles Regional Airport Weather

KWHP 182050Z 11007G15KT 10SM SKC 18/00 A2995

KAPV 191256Z AUTO 05004KT 10SM FEW075 SCT090 BKN110 18/18 A2996 RMK AO2 SLP144 T01830178 $

KAVX 182151Z AUTO 24009G17KT 10SM CLR 14/08 A2994 RMK AO2 SLP131 T01390078

KBFL 182154Z 30013G19KT 10SM CLR 23/M01 A2983 RMK AO2 SLP099 T02281006

KBUR 182153Z 17010KT 10SM CLR 18/01 A2989 RMK AO2 SLP114 T01830011

KCMA 182155Z 23011KT 10SM CLR 18/09 A2992 RMK AO2 SLP140 T01830089

KCNO 182153Z 23014G21KT 10SM FEW080 FEW200 22/03 A2991 RMK AO2 SLP125 T02170028 $

KEMT 182145Z 20005G14KT 10SM FEW040 20/00 A2991

KFUL 182153Z 21010KT 10SM CLR 20/04 A2990 RMK AO2 SLP125 T02000044

KHHR 182153Z 24010KT 10SM CLR 17/10 A2992 RMK AO2 SLP132 T01720100

KL35 182155Z AUTO 23010G17KT 204V264 10SM 08/M04 A2991 RMK AO2

KLAX 182153Z 25012KT 10SM FEW027 FEW230 17/11 A2992 RMK AO2 SLP132 T01720106

KLGB 182153Z 20010KT 10SM CLR 19/08 A2992 RMK AO2 SLP130 T01890078 $

KONT 182153Z 26010G17KT 10SM FEW060 FEW250 19/04 A2990 RMK AO2 SLP120 T01940039

KOXR 182151Z 22011KT 10SM FEW021 17/10 A2993 RMK AO2 SLP134 T01670100

KPMD 181453Z AUTO 27015KT 10SM CLR 10/M01 A2995 RMK AO2 SLP131 T01001011 55003

KPOC 182147Z 22010KT 10SM CLR 18/02 A2993

KRAL 182153Z 28008G14KT 10SM CLR 21/06 A2989 RMK AO2 SLP110 T02060061

KSMO 182151Z 23008KT 10SM CLR 16/10 A2992 RMK AO2 SLP132 T01610100

KSNA 182153Z 20013KT 10SM FEW043 FEW250 20/02 A2992 RMK AO2 SLP131 T02000017

KTOA 182147Z 19010KT 10SM FEW020 19/08 A2992

KTRM 182152Z AUTO VRB06KT 10SM CLR 25/M01 A2978 RMK AO2 SLP086 T02501011 $

KVNY 182151Z 16013G18KT 10SM CLR 19/M03 A2989 RMK AO2 SLP118 T01891033

KWJF 182156Z 23020G31KT 10SM CLR 17/M02 A2983 RMK AO2 PK WND 22031/2150 SLP097 T01721017



How to read METARs